createdAt,value
2017-02-21T00:00:41.197Z,22.42
2017-02-21T00:01:54.938Z,22.49
2017-02-21T00:03:08.058Z,22.42
2017-02-21T00:04:21.874Z,22.36
2017-02-21T00:05:35.582Z,22.47
2017-02-21T00:06:49.308Z,22.3
2017-02-21T00:08:02.415Z,22.35
2017-02-21T00:09:16.132Z,22.39
2017-02-21T00:10:28.650Z,22.33
2017-02-21T00:11:42.463Z,22.3
2017-02-21T00:12:55.567Z,22.36
2017-02-21T00:14:09.290Z,22.3
2017-02-21T00:15:23.003Z,22.33
2017-02-21T00:16:36.706Z,22.24
2017-02-21T00:17:50.460Z,22.25
2017-02-21T00:19:04.207Z,22.25
2017-02-21T00:20:17.895Z,22.2
2017-02-21T00:21:31.613Z,22.15
2017-02-21T00:22:45.316Z,22.21
2017-02-21T00:23:58.467Z,22.14
2017-02-21T00:25:12.182Z,22.09
2017-02-21T00:26:25.291Z,22.07
2017-02-21T00:27:39.007Z,22.05
2017-02-21T00:28:52.733Z,22.14
2017-02-21T00:30:05.881Z,22.18
2017-02-21T00:31:18.965Z,22.06
2017-02-21T00:32:32.688Z,22.03
2017-02-21T00:33:46.391Z,22.09
2017-02-21T00:35:00.145Z,22.05
2017-02-21T00:36:13.841Z,21.96
2017-02-21T00:37:27.585Z,21.92
2017-02-21T00:38:41.311Z,21.98
2017-02-21T00:39:54.982Z,21.9
2017-02-21T00:41:08.070Z,22
2017-02-21T00:42:21.778Z,22.03
2017-02-21T00:43:35.518Z,21.91
2017-02-21T00:44:49.263Z,21.9
2017-02-21T00:46:03.005Z,21.91
2017-02-21T00:47:16.706Z,21.84
2017-02-21T00:48:30.389Z,21.91
2017-02-21T00:49:44.102Z,21.82
2017-02-21T00:50:57.825Z,21.82
2017-02-21T00:52:10.980Z,21.88
2017-02-21T00:53:24.722Z,21.84
2017-02-21T00:54:38.424Z,21.9
2017-02-21T00:55:52.167Z,21.82
2017-02-21T00:57:05.888Z,21.9
2017-02-21T00:58:19.555Z,21.88
2017-02-21T00:59:33.264Z,21.91
2017-02-21T01:00:47.018Z,21.94
2017-02-21T01:02:00.757Z,21.99
2017-02-21T01:03:13.866Z,21.92
2017-02-21T01:04:26.394Z,22.02
2017-02-21T01:05:40.106Z,21.98
2017-02-21T01:06:53.819Z,21.84
2017-02-21T01:08:07.512Z,21.86
2017-02-21T01:09:21.242Z,21.92
2017-02-21T01:10:34.386Z,22.06
2017-02-21T01:11:48.113Z,22.12
2017-02-21T01:13:01.820Z,22.07
2017-02-21T01:14:14.955Z,22.2
2017-02-21T01:15:28.669Z,22.09
2017-02-21T01:16:42.372Z,21.98
2017-02-21T01:17:55.530Z,21.99
2017-02-21T01:19:09.228Z,21.99
2017-02-21T01:20:22.907Z,22.03
2017-02-21T01:21:36.660Z,21.99
2017-02-21T01:22:50.404Z,22.02
2017-02-21T01:24:04.131Z,21.98
2017-02-21T01:25:17.904Z,21.9
2017-02-21T01:26:31.661Z,21.91
2017-02-21T01:27:44.763Z,21.83
2017-02-21T01:28:58.501Z,21.83
2017-02-21T01:30:12.231Z,21.92
2017-02-21T01:31:25.944Z,21.94
2017-02-21T01:32:39.692Z,21.86
2017-02-21T01:33:53.413Z,21.83
2017-02-21T01:35:07.160Z,21.83
2017-02-21T01:36:20.879Z,21.82
2017-02-21T01:37:34.001Z,21.74
2017-02-21T01:38:47.686Z,21.83
2017-02-21T01:40:01.369Z,21.8
2017-02-21T01:41:15.073Z,21.83
2017-02-21T01:42:28.189Z,21.83
2017-02-21T01:43:41.919Z,21.72
2017-02-21T01:44:55.695Z,21.75
2017-02-21T01:46:09.450Z,21.71
2017-02-21T01:47:23.201Z,21.75
2017-02-21T01:48:36.893Z,21.71
2017-02-21T01:49:50.656Z,21.72
2017-02-21T01:51:03.789Z,21.64
2017-02-21T01:52:16.943Z,21.59
2017-02-21T01:53:30.641Z,21.58
2017-02-21T01:54:43.749Z,21.59
2017-02-21T01:55:57.471Z,21.54
2017-02-21T01:57:11.186Z,21.58
2017-02-21T01:58:24.907Z,21.44
2017-02-21T01:59:38.619Z,21.59
2017-02-21T02:00:52.333Z,21.44
2017-02-21T02:02:05.428Z,21.47
2017-02-21T02:03:17.947Z,21.47
2017-02-21T02:04:31.065Z,21.47
2017-02-21T02:05:44.772Z,21.47
2017-02-21T02:06:57.397Z,21.49
2017-02-21T02:08:09.895Z,21.46
2017-02-21T02:09:23.052Z,21.49
2017-02-21T02:10:36.774Z,21.34
2017-02-21T02:11:50.476Z,21.42
2017-02-21T02:13:04.202Z,21.34
2017-02-21T02:14:17.894Z,21.37
2017-02-21T02:15:31.609Z,21.42
2017-02-21T02:16:45.335Z,21.4
2017-02-21T02:17:59.047Z,21.46
2017-02-21T02:19:12.784Z,21.42
2017-02-21T02:20:25.886Z,21.37
2017-02-21T02:21:39.620Z,21.42
2017-02-21T02:22:53.345Z,21.38
2017-02-21T02:24:07.090Z,21.37
2017-02-21T02:25:20.195Z,21.27
2017-02-21T02:26:33.349Z,21.19
2017-02-21T02:27:47.049Z,21.19
2017-02-21T02:29:00.755Z,21.24
2017-02-21T02:30:14.475Z,21.21
2017-02-21T02:31:28.227Z,21.22
2017-02-21T02:32:41.947Z,21.17
2017-02-21T02:33:55.659Z,21.22
2017-02-21T02:35:08.788Z,21.27
2017-02-21T02:36:21.891Z,21.24
2017-02-21T02:37:35.578Z,21.25
2017-02-21T02:38:49.271Z,21.22
2017-02-21T02:40:02.383Z,21.07
2017-02-21T02:41:15.532Z,21.12
2017-02-21T02:42:29.408Z,21.17
2017-02-21T02:43:42.521Z,21.21
2017-02-21T02:44:56.337Z,21.1
2017-02-21T02:46:10.108Z,21.21
2017-02-21T02:47:23.209Z,21.24
2017-02-21T02:48:36.903Z,21.27
2017-02-21T02:49:50.791Z,21.14
2017-02-21T02:51:03.970Z,21.1
2017-02-21T02:52:17.651Z,21.14
2017-02-21T02:53:31.357Z,21.09
2017-02-21T02:54:45.070Z,21.1
2017-02-21T02:55:58.165Z,21.14
2017-02-21T02:57:11.873Z,21.19
2017-02-21T02:58:25.646Z,21.19
2017-02-21T02:59:39.418Z,21.19
2017-02-21T03:00:52.517Z,21.17
2017-02-21T03:02:06.229Z,21.16
2017-02-21T03:03:19.944Z,21.1
2017-02-21T03:04:33.065Z,21.13
2017-02-21T03:05:46.750Z,21.09
2017-02-21T03:07:00.508Z,21.17
2017-02-21T03:08:12.987Z,21.13
2017-02-21T03:09:26.719Z,21.27
2017-02-21T03:10:40.461Z,21.14
2017-02-21T03:11:54.163Z,21.09
2017-02-21T03:13:07.869Z,21.12
2017-02-21T03:14:21.001Z,21.14
2017-02-21T03:15:34.751Z,21.09
2017-02-21T03:16:48.459Z,21.31
2017-02-21T03:18:02.139Z,21.31
2017-02-21T03:19:15.855Z,21.19
2017-02-21T03:20:29.545Z,21.13
2017-02-21T03:21:43.225Z,21.1
2017-02-21T03:22:56.932Z,21.1
2017-02-21T03:24:10.648Z,21.12
2017-02-21T03:25:24.331Z,21.12
2017-02-21T03:26:38.106Z,21.16
2017-02-21T03:27:51.815Z,21.1
2017-02-21T03:29:05.499Z,21.12
2017-02-21T03:30:19.269Z,21.22
2017-02-21T03:31:32.991Z,21.07
2017-02-21T03:32:46.118Z,21.07
2017-02-21T03:33:59.838Z,21.09
2017-02-21T03:35:13.560Z,21.14
2017-02-21T03:36:27.267Z,21.1
2017-02-21T03:37:41.007Z,21.09
2017-02-21T03:38:54.765Z,20.99
2017-02-21T03:40:07.894Z,21.03
2017-02-21T03:41:21.013Z,21.06
2017-02-21T03:42:34.719Z,21.04
2017-02-21T03:43:47.804Z,21.06
2017-02-21T03:45:01.517Z,21.03
2017-02-21T03:46:14.638Z,21.04
2017-02-21T03:47:28.378Z,20.92
2017-02-21T03:48:42.128Z,20.95
2017-02-21T03:49:55.237Z,20.88
2017-02-21T03:51:08.978Z,20.87
2017-02-21T03:52:22.673Z,20.99
2017-02-21T03:53:36.374Z,21.01
2017-02-21T03:54:50.120Z,20.97
2017-02-21T03:56:03.810Z,21.03
2017-02-21T03:57:16.948Z,20.95
2017-02-21T03:58:30.679Z,20.85
2017-02-21T03:59:43.838Z,20.88
2017-02-21T04:00:56.938Z,20.87
2017-02-21T04:02:10.676Z,20.85
2017-02-21T04:03:24.364Z,20.88
2017-02-21T04:04:38.085Z,20.77
2017-02-21T04:05:50.577Z,20.97
2017-02-21T04:07:04.342Z,20.95
2017-02-21T04:08:18.045Z,20.94
2017-02-21T04:09:31.761Z,20.99
2017-02-21T04:10:45.550Z,20.97
2017-02-21T04:11:59.298Z,20.95
2017-02-21T04:13:13.001Z,20.91
2017-02-21T04:14:26.685Z,20.91
2017-02-21T04:15:40.392Z,20.87
2017-02-21T04:16:54.087Z,20.74
2017-02-21T04:18:07.836Z,20.92
2017-02-21T04:19:20.381Z,20.92
2017-02-21T04:20:34.137Z,20.92
2017-02-21T04:21:47.836Z,20.95
2017-02-21T04:23:01.530Z,20.95
2017-02-21T04:24:14.620Z,20.82
2017-02-21T04:25:28.360Z,20.82
2017-02-21T04:26:42.089Z,20.77
2017-02-21T04:27:55.843Z,20.79
2017-02-21T04:29:09.549Z,20.76
2017-02-21T04:30:23.290Z,20.79
2017-02-21T04:31:36.982Z,20.85
2017-02-21T04:32:50.667Z,20.85
2017-02-21T04:34:04.378Z,20.77
2017-02-21T04:35:17.509Z,20.79
2017-02-21T04:36:30.612Z,20.82
2017-02-21T04:37:44.318Z,20.76
2017-02-21T04:38:58.061Z,20.74
2017-02-21T04:40:11.778Z,20.76
2017-02-21T04:41:25.501Z,20.64
2017-02-21T04:42:39.190Z,20.62
2017-02-21T04:43:52.876Z,20.59
2017-02-21T04:45:06.567Z,20.72
2017-02-21T04:46:19.686Z,20.61
2017-02-21T04:47:33.410Z,20.64
2017-02-21T04:48:47.114Z,20.67
2017-02-21T04:50:00.833Z,20.58
2017-02-21T04:51:14.557Z,20.61
2017-02-21T04:52:28.309Z,20.66
2017-02-21T04:53:40.887Z,20.74
2017-02-21T04:54:53.984Z,20.62
2017-02-21T04:56:07.732Z,20.64
2017-02-21T04:57:20.868Z,20.57
2017-02-21T04:58:34.017Z,20.62
2017-02-21T04:59:47.734Z,20.61
2017-02-21T05:01:01.436Z,20.58
2017-02-21T05:02:15.222Z,20.59
2017-02-21T05:03:28.997Z,20.62
2017-02-21T05:04:42.146Z,20.62
2017-02-21T05:05:55.873Z,20.69
2017-02-21T05:07:09.577Z,20.67
2017-02-21T05:08:23.295Z,20.7
2017-02-21T05:09:37.034Z,20.57
2017-02-21T05:10:49.606Z,20.67
2017-02-21T05:12:03.385Z,20.48
2017-02-21T05:13:17.097Z,20.58
2017-02-21T05:14:30.801Z,20.59
2017-02-21T05:15:44.578Z,20.58
2017-02-21T05:16:57.742Z,20.57
2017-02-21T05:18:10.871Z,20.5
2017-02-21T05:19:24.581Z,20.48
2017-02-21T05:20:38.332Z,20.48
2017-02-21T05:21:51.489Z,20.48
2017-02-21T05:23:05.211Z,20.58
2017-02-21T05:24:18.885Z,20.43
2017-02-21T05:25:32.597Z,20.47
2017-02-21T05:26:46.271Z,20.43
2017-02-21T05:27:59.989Z,20.58
2017-02-21T05:29:13.099Z,20.51
2017-02-21T05:30:26.827Z,20.54
2017-02-21T05:31:39.923Z,20.59
2017-02-21T05:32:53.611Z,20.43
2017-02-21T05:34:07.314Z,20.39
2017-02-21T05:35:21.024Z,20.48
2017-02-21T05:36:34.732Z,20.42
2017-02-21T05:37:48.482Z,20.47
2017-02-21T05:39:02.177Z,20.33
2017-02-21T05:40:15.941Z,20.33
2017-02-21T05:41:29.663Z,20.29
2017-02-21T05:42:42.814Z,20.33
2017-02-21T05:43:56.023Z,20.31
2017-02-21T05:45:09.155Z,20.28
2017-02-21T05:46:22.897Z,20.31
2017-02-21T05:47:36.629Z,20.31
2017-02-21T05:48:50.316Z,20.36
2017-02-21T05:50:03.571Z,20.28
2017-02-21T05:51:16.702Z,20.26
2017-02-21T05:52:30.389Z,20.24
2017-02-21T05:53:44.074Z,20.26
2017-02-21T05:54:57.195Z,20.23
2017-02-21T05:56:09.718Z,20.18
2017-02-21T05:57:23.417Z,20.18
2017-02-21T05:58:37.168Z,20.23
2017-02-21T05:59:50.334Z,20.24
2017-02-21T06:01:04.013Z,20.2
2017-02-21T06:02:17.785Z,20.28
2017-02-21T06:03:30.875Z,20.26
2017-02-21T06:04:43.993Z,20.33
2017-02-21T06:05:57.715Z,20.29
2017-02-21T06:07:10.820Z,20.31
2017-02-21T06:08:24.523Z,20.2
2017-02-21T06:09:38.227Z,20.2
2017-02-21T06:10:50.742Z,20.16
2017-02-21T06:12:04.496Z,20.16
2017-02-21T06:13:18.224Z,20.13
2017-02-21T06:14:31.972Z,20.08
2017-02-21T06:15:45.105Z,20.1
2017-02-21T06:16:58.801Z,20.11
2017-02-21T06:18:12.541Z,20.24
2017-02-21T06:19:26.254Z,20.18
2017-02-21T06:20:39.985Z,20.2
2017-02-21T06:21:53.717Z,20.13
2017-02-21T06:23:07.429Z,20.06
2017-02-21T06:24:21.190Z,20.1
2017-02-21T06:25:34.920Z,19.99
2017-02-21T06:26:48.072Z,20.08
2017-02-21T06:28:01.355Z,20.11
2017-02-21T06:29:15.053Z,20.06
2017-02-21T06:30:28.762Z,20.17
2017-02-21T06:31:42.533Z,20.05
2017-02-21T06:32:55.687Z,20.23
2017-02-21T06:34:09.391Z,20.28
2017-02-21T06:35:23.093Z,20.21
2017-02-21T06:36:36.794Z,20.18
2017-02-21T06:37:49.919Z,20.2
2017-02-21T06:39:03.839Z,20.1
2017-02-21T06:40:16.978Z,20.13
2017-02-21T06:41:30.680Z,20.17
2017-02-21T06:42:44.420Z,20.16
2017-02-21T06:43:58.127Z,20.13
2017-02-21T06:45:11.830Z,19.98
2017-02-21T06:46:25.607Z,20.05
2017-02-21T06:47:39.321Z,20.08
2017-02-21T06:48:52.459Z,20.13
2017-02-21T06:50:06.155Z,20.21
2017-02-21T06:51:19.876Z,20.23
2017-02-21T06:52:33.591Z,20.13
2017-02-21T06:53:47.318Z,20.21
2017-02-21T06:55:01.074Z,20.24
2017-02-21T06:56:14.806Z,20.14
2017-02-21T06:57:28.519Z,20.24
2017-02-21T06:58:42.197Z,20.1
2017-02-21T06:59:55.904Z,20.1
2017-02-21T07:01:09.628Z,20.1
2017-02-21T07:02:22.726Z,20.23
2017-02-21T07:03:36.423Z,20.11
2017-02-21T07:04:48.932Z,20.23
2017-02-21T07:06:02.692Z,20.21
2017-02-21T07:07:16.438Z,20.1
2017-02-21T07:08:30.189Z,20.1
2017-02-21T07:09:43.919Z,20.16
2017-02-21T07:10:57.038Z,20.21
2017-02-21T07:12:10.151Z,20.21
2017-02-21T07:13:23.325Z,20.18
2017-02-21T07:14:36.450Z,20.1
2017-02-21T07:15:49.593Z,20.13
2017-02-21T07:17:03.315Z,20.18
2017-02-21T07:18:16.424Z,20.06
2017-02-21T07:19:30.158Z,20.13
2017-02-21T07:20:43.867Z,20.14
2017-02-21T07:21:57.594Z,20.06
2017-02-21T07:23:11.302Z,20.06
2017-02-21T07:24:24.425Z,20.06
2017-02-21T07:25:38.229Z,20.01
2017-02-21T07:26:51.361Z,20.05
2017-02-21T07:28:05.057Z,20.06
2017-02-21T07:29:17.542Z,19.96
2017-02-21T07:30:31.258Z,20.1
2017-02-21T07:31:45.014Z,20.06
2017-02-21T07:32:58.751Z,20.05
2017-02-21T07:34:11.948Z,20.1
2017-02-21T07:35:25.690Z,20.06
2017-02-21T07:36:39.384Z,19.96
2017-02-21T07:37:52.514Z,19.99
2017-02-21T07:39:06.247Z,19.96
2017-02-21T07:40:19.955Z,20.06
2017-02-21T07:41:33.703Z,19.99
2017-02-21T07:42:47.415Z,19.95
2017-02-21T07:44:01.118Z,19.94
2017-02-21T07:45:14.815Z,19.94
2017-02-21T07:46:28.528Z,19.84
2017-02-21T07:47:42.275Z,19.87
2017-02-21T07:48:55.962Z,19.96
2017-02-21T07:50:09.691Z,19.98
2017-02-21T07:51:23.401Z,20.02
2017-02-21T07:52:37.077Z,20.01
2017-02-21T07:53:50.185Z,19.98
2017-02-21T07:55:03.852Z,19.96
2017-02-21T07:56:17.601Z,20.01
2017-02-21T07:57:30.762Z,19.96
2017-02-21T07:58:44.456Z,19.99
2017-02-21T07:59:58.136Z,20.06
2017-02-21T08:01:11.814Z,20.05
2017-02-21T08:02:25.492Z,19.96
2017-02-21T08:03:39.270Z,19.95
2017-02-21T08:04:52.972Z,20.01
2017-02-21T08:06:06.653Z,19.99
2017-02-21T08:07:20.340Z,20.01
2017-02-21T08:08:34.015Z,20.01
2017-02-21T08:09:47.751Z,20.02
2017-02-21T08:11:01.460Z,19.98
2017-02-21T08:12:14.574Z,20.01
2017-02-21T08:13:28.289Z,20.1
2017-02-21T08:14:41.954Z,19.96
2017-02-21T08:15:54.473Z,19.99
2017-02-21T08:17:07.604Z,20.01
2017-02-21T08:18:21.324Z,20.01
2017-02-21T08:19:35.076Z,19.95
2017-02-21T08:20:48.797Z,19.95
2017-02-21T08:22:02.529Z,19.95
2017-02-21T08:23:15.058Z,19.99
2017-02-21T08:24:28.785Z,20.05
2017-02-21T08:25:42.525Z,20.03
2017-02-21T08:26:55.041Z,20.02
2017-02-21T08:28:08.757Z,20.02
2017-02-21T08:29:21.867Z,19.99
2017-02-21T08:30:35.631Z,19.99
2017-02-21T08:31:48.133Z,20.03
2017-02-21T08:33:01.879Z,20.01
2017-02-21T08:34:15.635Z,19.98
2017-02-21T08:35:28.730Z,19.98
2017-02-21T08:36:42.423Z,20.01
2017-02-21T08:37:56.183Z,19.96
2017-02-21T08:39:09.885Z,20.01
2017-02-21T08:40:22.403Z,19.99
2017-02-21T08:41:36.132Z,19.95
2017-02-21T08:42:49.254Z,19.86
2017-02-21T08:44:02.988Z,20.02
2017-02-21T08:45:16.745Z,19.95
2017-02-21T08:46:29.840Z,19.99
2017-02-21T08:47:43.884Z,19.94
2017-02-21T08:48:56.995Z,20.05
2017-02-21T08:50:10.180Z,19.98
2017-02-21T08:51:23.271Z,19.92
2017-02-21T08:52:36.992Z,19.98
2017-02-21T08:53:50.714Z,20.03
2017-02-21T08:55:03.828Z,20.05
2017-02-21T08:56:16.961Z,19.98
2017-02-21T08:57:30.696Z,19.98
2017-02-21T08:58:44.379Z,20.05
2017-02-21T08:59:56.944Z,20.14
2017-02-21T09:01:10.063Z,20.11
2017-02-21T09:02:23.172Z,20.13
2017-02-21T09:03:36.902Z,20.1
2017-02-21T09:04:49.998Z,20.06
2017-02-21T09:06:03.727Z,20.13
2017-02-21T09:07:17.470Z,20.23
2017-02-21T09:08:31.157Z,20.24
2017-02-21T09:09:44.843Z,20.38
2017-02-21T09:10:58.598Z,20.48
2017-02-21T09:12:12.325Z,20.55
2017-02-21T09:13:25.453Z,20.57
2017-02-21T09:14:38.548Z,20.74
2017-02-21T09:15:52.264Z,20.88
2017-02-21T09:17:05.981Z,21.01
2017-02-21T09:18:19.668Z,21.13
2017-02-21T09:19:33.449Z,21.28
2017-02-21T09:20:47.182Z,21.37
2017-02-21T09:22:00.308Z,21.49
2017-02-21T09:23:14.027Z,21.61
2017-02-21T09:24:27.711Z,21.62
2017-02-21T09:25:40.852Z,21.71
2017-02-21T09:26:54.012Z,21.88
2017-02-21T09:28:07.753Z,21.99
2017-02-21T09:29:21.445Z,22.03
2017-02-21T09:30:35.148Z,22.3
2017-02-21T09:31:48.295Z,22.3
2017-02-21T09:33:02.002Z,22.43
2017-02-21T09:34:14.487Z,22.6
2017-02-21T09:35:28.211Z,22.75
2017-02-21T09:36:41.920Z,22.86
2017-02-21T09:37:55.709Z,23.01
2017-02-21T09:39:09.390Z,23.16
2017-02-21T09:40:23.110Z,23.42
2017-02-21T09:41:36.819Z,23.54
2017-02-21T09:42:49.944Z,23.75
2017-02-21T09:44:03.657Z,23.78
2017-02-21T09:45:17.374Z,23.87
2017-02-21T09:46:31.088Z,23.91
2017-02-21T09:47:43.586Z,23.84
2017-02-21T09:48:56.727Z,23.84
2017-02-21T09:50:10.426Z,23.83
2017-02-21T09:51:24.135Z,23.91
2017-02-21T09:52:36.672Z,24.12
2017-02-21T09:53:49.795Z,24.21
2017-02-21T09:55:03.500Z,24.3
2017-02-21T09:56:17.221Z,24.57
2017-02-21T09:57:30.927Z,24.77
2017-02-21T09:58:44.047Z,24.9
2017-02-21T09:59:57.773Z,24.99
2017-02-21T10:01:11.511Z,25.2
2017-02-21T10:02:25.216Z,25.45
2017-02-21T10:03:38.898Z,25.75
2017-02-21T10:04:52.048Z,25.97
2017-02-21T10:06:05.804Z,26.25
2017-02-21T10:07:19.515Z,26.47
2017-02-21T10:08:32.656Z,26.66
2017-02-21T10:09:46.353Z,26.81
2017-02-21T10:10:59.488Z,26.94
2017-02-21T10:12:13.177Z,27.06
2017-02-21T10:13:26.341Z,27.04
2017-02-21T10:14:39.491Z,27.12
2017-02-21T10:15:53.233Z,27.22
2017-02-21T10:17:06.949Z,27.21
2017-02-21T10:18:20.691Z,27.19
2017-02-21T10:19:33.818Z,27.36
2017-02-21T10:20:47.549Z,27.54
2017-02-21T10:22:01.286Z,27.85
2017-02-21T10:23:13.202Z,27.85
2017-02-21T10:24:26.912Z,27.93
2017-02-21T10:25:40.620Z,27.75
2017-02-21T10:26:54.315Z,27.82
2017-02-21T10:28:06.816Z,27.93
2017-02-21T10:29:19.919Z,27.9
2017-02-21T10:30:33.704Z,27.87
2017-02-21T10:31:46.822Z,28.03
2017-02-21T10:33:00.543Z,28.09
2017-02-21T10:34:13.649Z,27.96
2017-02-21T10:35:26.802Z,27.84
2017-02-21T10:36:40.566Z,27.92
2017-02-21T10:37:53.724Z,27.85
2017-02-21T10:39:07.460Z,27.72
2017-02-21T10:40:20.604Z,27.7
2017-02-21T10:41:34.338Z,27.57
2017-02-21T10:42:48.035Z,27.54
2017-02-21T10:44:01.215Z,27.44
2017-02-21T10:45:14.992Z,27.55
2017-02-21T10:46:28.750Z,27.78
2017-02-21T10:47:42.507Z,27.84
2017-02-21T10:48:55.045Z,27.69
2017-02-21T10:50:08.769Z,27.65
2017-02-21T10:51:22.518Z,27.43
2017-02-21T10:52:36.289Z,27.22
2017-02-21T10:53:50.027Z,27.29
2017-02-21T10:55:03.168Z,27.41
2017-02-21T10:56:16.300Z,27.85
2017-02-21T10:57:29.460Z,28.19
2017-02-21T10:58:43.248Z,28.37
2017-02-21T10:59:56.355Z,28.36
2017-02-21T11:01:09.510Z,28.52
2017-02-21T11:02:22.645Z,28.66
2017-02-21T11:03:36.376Z,28.9
2017-02-21T11:04:49.533Z,29.14
2017-02-21T11:06:02.650Z,29.21
2017-02-21T11:07:16.360Z,29.46
2017-02-21T11:08:29.447Z,29.45
2017-02-21T11:09:43.146Z,29.34
2017-02-21T11:10:56.894Z,29.23
2017-02-21T11:12:10.611Z,29.3
2017-02-21T11:13:24.355Z,29.37
2017-02-21T11:14:38.130Z,29.36
2017-02-21T11:15:51.927Z,28.95
2017-02-21T11:17:05.109Z,28.98
2017-02-21T11:18:18.250Z,29.14
2017-02-21T11:19:31.960Z,28.89
2017-02-21T11:20:44.506Z,28.7
2017-02-21T11:21:57.626Z,28.98
2017-02-21T11:23:10.786Z,29.15
2017-02-21T11:24:24.552Z,29.63
2017-02-21T11:25:38.289Z,29.6
2017-02-21T11:26:52.043Z,29.52
2017-02-21T11:28:05.182Z,29.24
2017-02-21T11:29:18.326Z,29.21
2017-02-21T11:30:32.047Z,29.42
2017-02-21T11:31:45.762Z,29.53
2017-02-21T11:32:59.559Z,29.63
2017-02-21T11:34:12.690Z,29.52
2017-02-21T11:35:26.454Z,29.57
2017-02-21T11:36:40.197Z,29.76
2017-02-21T11:37:53.934Z,29.87
2017-02-21T11:39:07.660Z,30.17
2017-02-21T11:40:21.388Z,30.29
2017-02-21T11:41:35.136Z,30.64
2017-02-21T11:42:48.874Z,30.15
2017-02-21T11:44:02.603Z,30.07
2017-02-21T11:45:16.365Z,30.2
2017-02-21T11:46:30.145Z,29.74
2017-02-21T11:47:43.879Z,29.48
2017-02-21T11:48:57.634Z,29.64
2017-02-21T12:21:15.166Z,29.52
2017-02-21T12:22:28.876Z,28.76
2017-02-21T12:23:42.617Z,28.62
2017-02-21T12:24:56.329Z,28.68
2017-02-21T12:26:09.528Z,28.88
2017-02-21T12:27:22.653Z,29.42
2017-02-21T12:28:35.793Z,29.92
2017-02-21T12:29:49.523Z,30.2
2017-02-21T12:31:03.260Z,30.49
2017-02-21T12:32:16.970Z,30.83
2017-02-21T12:33:30.677Z,30.97
2017-02-21T12:34:43.807Z,30.94
2017-02-21T12:35:57.530Z,30.84
2017-02-21T12:37:11.323Z,30.58
2017-02-21T12:38:23.891Z,30.58
2017-02-21T12:39:37.651Z,30.73
2017-02-21T12:40:51.365Z,30.75
2017-02-21T12:42:05.123Z,29.79
2017-02-21T12:43:18.844Z,29.78
2017-02-21T12:44:32.586Z,30.15
2017-02-21T12:45:46.361Z,30.37
2017-02-21T12:46:59.557Z,30.82
2017-02-21T12:48:13.364Z,30.67
2017-02-21T12:49:27.079Z,30.04
2017-02-21T12:50:40.259Z,29.37
2017-02-21T12:51:53.394Z,28.92
2017-02-21T12:53:07.127Z,28.61
2017-02-21T12:54:20.895Z,28.71
2017-02-21T12:55:34.024Z,29.05
2017-02-21T12:56:47.779Z,29.23
2017-02-21T12:58:00.906Z,29.46
2017-02-21T12:59:13.517Z,29.23
2017-02-21T13:00:26.693Z,28.98
2017-02-21T13:01:39.884Z,29.05
2017-02-21T13:02:53.661Z,29.15
2017-02-21T13:04:06.790Z,29.48
2017-02-21T13:05:19.962Z,29.37
2017-02-21T13:06:33.736Z,29.3
2017-02-21T13:07:47.491Z,28.93
2017-02-21T13:09:00.625Z,29
2017-02-21T13:10:14.342Z,28.86
2017-02-21T13:11:26.925Z,28.68
2017-02-21T13:12:40.064Z,28.74
2017-02-21T13:13:53.190Z,28.68
2017-02-21T13:15:06.286Z,28.62
2017-02-21T13:16:20.054Z,28.8
2017-02-21T13:17:33.793Z,29.19
2017-02-21T13:18:47.516Z,28.73
2017-02-21T13:20:00.025Z,28.37
2017-02-21T13:21:13.157Z,28.73
2017-02-21T13:22:26.883Z,28.73
2017-02-21T13:23:40.632Z,28.76
2017-02-21T13:24:54.337Z,29.04
2017-02-21T13:26:07.547Z,29.27
2017-02-21T13:27:20.107Z,29.42
2017-02-21T13:28:33.834Z,29.33
2017-02-21T13:29:47.175Z,29.28
2017-02-21T13:31:01.012Z,29.08
2017-02-21T13:32:13.563Z,28.81
2017-02-21T13:33:27.315Z,28.77
2017-02-21T13:34:41.074Z,28.59
2017-02-21T13:35:54.235Z,28.55
2017-02-21T13:37:08.011Z,28.76
2017-02-21T13:38:20.568Z,29.12
2017-02-21T13:39:34.305Z,29.26
2017-02-21T13:40:48.068Z,29.7
2017-02-21T13:42:01.743Z,30.26
2017-02-21T13:43:14.831Z,30.2
2017-02-21T13:44:28.543Z,30.23
2017-02-21T13:45:41.676Z,29.67
2017-02-21T13:46:54.797Z,29.63
2017-02-21T13:48:07.934Z,29.45
2017-02-21T13:49:21.029Z,29.23
2017-02-21T13:50:34.802Z,29.34
2017-02-21T13:51:47.905Z,29.33
2017-02-21T13:53:01.616Z,29.45
2017-02-21T13:54:14.745Z,29.63
2017-02-21T13:55:28.481Z,29.7
2017-02-21T13:56:42.231Z,29.9
2017-02-21T13:57:54.770Z,30.07
2017-02-21T13:59:07.315Z,29.97
2017-02-21T14:00:21.077Z,29.58
2017-02-21T14:01:34.859Z,29.3
2017-02-21T14:02:48.577Z,29.48
2017-02-21T14:04:00.653Z,29.6
2017-02-21T14:05:13.216Z,29.87
2017-02-21T14:06:25.795Z,29.74
2017-02-21T14:07:39.532Z,29.68
2017-02-21T14:08:53.273Z,29.76
2017-02-21T14:10:07.057Z,30.26
2017-02-21T14:11:20.216Z,30.47
2017-02-21T14:12:33.341Z,30.47
2017-02-21T14:13:47.078Z,30.27
2017-02-21T14:15:00.811Z,30.15
2017-02-21T14:16:14.613Z,29.95
2017-02-21T14:17:28.397Z,30.13
2017-02-21T14:18:42.145Z,30.29
2017-02-21T14:19:55.299Z,30.23
2017-02-21T14:21:09.041Z,30.53
2017-02-21T14:22:22.857Z,30.58
2017-02-21T14:23:36.555Z,31.31
2017-02-21T14:24:50.329Z,31.93
2017-02-21T14:26:04.062Z,32.01
2017-02-21T14:27:17.765Z,31.8
2017-02-21T14:28:31.552Z,31.41
2017-02-21T14:29:45.294Z,30.77
2017-02-21T14:30:57.841Z,30.45
2017-02-21T14:32:10.397Z,30.27
2017-02-21T14:33:23.538Z,30.38
2017-02-21T14:34:37.263Z,30.51
2017-02-21T14:35:50.956Z,30.91
2017-02-21T14:37:04.699Z,31.09
2017-02-21T14:38:18.431Z,30.57
2017-02-21T14:40:41.694Z,30.53
2017-02-21T14:41:54.831Z,30.99
2017-02-21T14:43:08.122Z,31.58
2017-02-21T14:44:25.362Z,32.14
2017-02-21T14:45:39.805Z,32.22
2017-02-21T14:46:54.206Z,32.29
2017-02-21T14:48:07.989Z,31.85
2017-02-21T14:49:22.393Z,31.41
2017-02-21T14:50:36.788Z,31.19
2017-02-21T14:51:51.281Z,31.19
2017-02-21T14:53:05.798Z,31.1
2017-02-21T14:54:19.576Z,31.1
2017-02-21T14:55:33.988Z,30.8
2017-02-21T14:56:48.411Z,30.62
2017-02-21T14:58:02.163Z,30.55
2017-02-21T14:59:15.945Z,31.04
2017-02-21T15:00:30.351Z,31.54
2017-02-21T15:01:44.761Z,31.56
2017-02-21T15:02:59.157Z,31.96
2017-02-21T15:04:13.555Z,32.47
2017-02-21T15:05:27.986Z,33.07
2017-02-21T15:06:42.403Z,33.34
2017-02-21T15:07:56.794Z,33.6
2017-02-21T15:09:11.219Z,33.73
2017-02-21T15:10:25.675Z,33.69
2017-02-21T15:11:39.476Z,33.31
2017-02-21T15:12:53.934Z,33.01
2017-02-21T15:14:07.670Z,33.26
2017-02-21T15:15:21.420Z,33.5
2017-02-21T15:16:35.189Z,33.49
2017-02-21T15:17:49.600Z,33.12
2017-02-21T15:19:04.049Z,33.11
2017-02-21T15:20:17.816Z,33.51
2017-02-21T15:21:32.238Z,34.06
2017-02-21T15:22:46.658Z,34.61
2017-02-21T15:24:01.081Z,35.29
2017-02-21T15:25:15.499Z,35.6
2017-02-21T15:26:29.262Z,35.99
2017-02-21T15:27:43.734Z,35.94
2017-02-21T15:28:58.174Z,35.07
2017-02-21T15:30:12.587Z,35
2017-02-21T15:31:26.350Z,34.32
2017-02-21T15:32:40.104Z,33.84
2017-02-21T15:33:54.504Z,33.54
2017-02-21T15:35:08.931Z,33.09
2017-02-21T15:36:23.362Z,33.03
2017-02-21T15:37:37.786Z,32.47
2017-02-21T15:38:52.251Z,32.03
2017-02-21T15:40:06.026Z,32.22
2017-02-21T15:41:19.917Z,32.32
2017-02-21T15:42:34.613Z,32.06
2017-02-21T15:43:49.046Z,32.21
2017-02-21T15:45:03.465Z,32.5
2017-02-21T15:46:16.583Z,32.47
2017-02-21T15:47:31.010Z,32.72
2017-02-21T15:48:45.440Z,33.16
2017-02-21T15:49:59.844Z,33.21
2017-02-21T15:51:12.982Z,32.67
2017-02-21T15:52:26.738Z,32.6
2017-02-21T15:53:41.179Z,32.79
2017-02-21T15:54:55.585Z,33.18
2017-02-21T15:56:09.989Z,33.19
2017-02-21T15:57:23.116Z,32.94
2017-02-21T15:58:37.494Z,33.12
2017-02-21T15:59:51.921Z,33.57
2017-02-21T16:01:06.338Z,33.69
2017-02-21T16:02:20.727Z,33.95
2017-02-21T16:03:35.143Z,33.94
2017-02-21T16:04:49.567Z,34.13
2017-02-21T16:06:03.953Z,34.35
2017-02-21T16:07:17.731Z,34.75
2017-02-21T16:08:32.181Z,34.65
2017-02-21T16:09:46.604Z,34.5
2017-02-21T16:11:01.014Z,34.73
2017-02-21T16:12:14.812Z,34.88
2017-02-21T16:13:29.260Z,34.42
2017-02-21T16:15:14.623Z,33.91
2017-02-21T16:16:29.034Z,33.66
2017-02-21T16:17:42.804Z,33.63
2017-02-21T16:18:57.280Z,33.63
2017-02-21T16:20:11.724Z,33.37
2017-02-21T16:21:26.121Z,33.51
2017-02-21T16:22:40.531Z,33.79
2017-02-21T16:23:54.310Z,33.76